Portada
METAR-TAF:

METAR-TAF

Aeroports :

Jammu, Índia

latitud: 32-41-21N, longitud: 74-50-15E, altitud: 314 m

Observació

L'informe es va fer fa 49 minuts, a les 05:30 UTC
Vent 4 kt del Sud/Sud-Est
Temperatura 28°C
Humitat 70%
Pressió 1014 hPa
Visibilitat: 5000 m
Escasses núvols a una alçada de 20000 ft
calitja

METAR: VIJU 140530Z 15004KT 5000 HZ FEW200 28/22 Q1014 NOSIG

Hora: 11:49 (06:19 UTC)

Pronòstic

L'informe es va fer fa 2 hores i 49 minuts, a les 03:30 UTC
Pronòstic vàlid del 14 a les 06 UTC al 14 a les 18 UTC
Vent 2 kt amb direcció variable
Visibilitat: 6000 m
Escasses núvols a una alçada de 3000 ft
Temporalment
l' 14 a les 12 UTC al 14 a les 14 UTC
Vent 10 kt del Nord-Est
Visibilitat: 6000 m
Escasses núvols a una alçada de 2500 ft
Núvols disperses a una alçada de 25000 ft
boirina

TAF: VIJU 140330Z 1406/1418 VRB02KT 6000 FEW030 TEMPO 1412/1414 VRB02KT 5000 BR SCT030VAJM 140330Z 1406/1418 05010KT 6000 FEW025 SCT250

Observacions i pronòstics meteorològics de més de 4000 aeroports (METAR i TAF).

Les estacions disponibles són els punts grocs i vermells al mapa.

Posi el ratolí al punt desitjat per veure el nom de l'estació.

Feu clic per veure les observacions i els pronòstics meteorològics.

Per canviar el mapa: feu clic els botons verds amb una creu de color negre per apropar; al botó verd amb un guió per allunyar la imatge; o en les fletxes verdes per a mapes adjacents.


METAR-TAF: